Gener8 Spyridon — V7BY9 — position and weather

sailwx.info

Track history (hours):
 
Tides and Currents Weather Stations Pressure Air Temp Water Temp Dewpoint Dewpoint Depression Visibility Wind Speed Wind Dir Waves Ship Positions

Gener8 Spyridon

Last reported at 2016-Nov-24 14:33 UTC. Time now 2016-Dec-05 08:35 UTC.
Position N 34°14' E 032°46'.
Warning: this ship's position is 10 days out of date.

Length 275 m; draft 11 m.

Type: Tanker. MMSI: 538001404.

Date/timePositionNaut miles runAvg speedWind from/ knotsBaromVisibWave heightAir tempDewpointWater temp
2016-Nov-24 14:33N 34°14' E 032°46'19 7.6
2016-Nov-24 12:05N 34°15' E 033°09'14 9.4
2016-Nov-24 10:33N 34°28' E 033°16'2 1.5
2016-Nov-24 09:33N 34°30' E 033°17'1 1.3
2016-Nov-24 08:33N 34°31' E 033°17'3 2.9
2016-Nov-24 07:33N 34°29' E 033°19'8 1.9
2016-Nov-24 03:18N 34°21' E 033°21'1 1.5
2016-Nov-24 02:30N 34°22' E 033°21'3 1.5
2016-Nov-24 00:21N 34°25' E 033°19'0 0.5
2016-Nov-23 23:28N 34°25' E 033°19'3 0.1
2016-Nov-22 20:31N 34°22' E 033°18'1 1.3
2016-Nov-22 19:27N 34°24' E 033°18'2 1.3
2016-Nov-22 17:33N 34°26' E 033°17'1 1.4
2016-Nov-22 16:33N 34°27' E 033°16'2 1.9
2016-Nov-22 15:33N 34°29' E 033°15'2 2.4
2016-Nov-22 14:34N 34°28' E 033°17'3 3.2
2016-Nov-22 13:33N 34°24' E 033°18'1 0.5
2016-Nov-22 10:32N 34°26' E 033°17'4 4.4
2016-Nov-22 09:33N 34°30' E 033°18'2 2.2
2016-Nov-22 08:33N 34°32' E 033°20'2 1.7
2016-Nov-22 07:33N 34°31' E 033°18'8 1.9
2016-Nov-22 03:28N 34°26' E 033°11'0 0.4
2016-Nov-22 02:33N 34°26' E 033°11'1 0.4
2016-Nov-21 23:26N 34°25' E 033°13'1 0.5
2016-Nov-21 21:33N 34°26' E 033°14'3 0.6
2016-Nov-21 17:33N 34°27' E 033°16'1 0.4
2016-Nov-21 14:33N 34°28' E 033°17'6 0.2
2016-Nov-20 13:33N 34°22' E 033°16'2 1.7
2016-Nov-20 12:33N 34°24' E 033°16'4 1.4
2016-Nov-20 09:33N 34°28' E 033°16'1 1.3
2016-Nov-20 08:33N 34°29' E 033°15'5 5.2
2016-Nov-20 07:33N 34°29' E 033°09'1110.9
2016-Nov-20 06:34N 34°28' E 032°56'1312.9
2016-Nov-20 05:33N 34°28' E 032°40'  
2016-Nov-16 23:22N 35°57' E 014°50'0 0.0
2016-Nov-16 22:31N 35°57' E 014°50'0 0.0
2016-Nov-16 18:31N 35°57' E 014°50'0 0.0
2016-Nov-16 17:31N 35°57' E 014°50'0 0.0
2016-Nov-16 12:13N 35°57' E 014°50'0 0.0
2016-Nov-15 21:31N 35°57' E 014°50'0 0.1
2016-Nov-15 19:31N 35°57' E 014°50'0 0.1
2016-Nov-15 18:31N 35°57' E 014°50'0 0.0
2016-Nov-15 13:28N 35°57' E 014°50'0 0.0
2016-Nov-15 12:28N 35°57' E 014°50'0 0.0
2016-Nov-15 07:31N 35°57' E 014°50'0 0.0
2016-Nov-15 06:22N 35°57' E 014°50'0 0.0
2016-Nov-15 05:46N 35°57' E 014°50'0 0.0
2016-Nov-15 03:31N 35°57' E 014°50'0 0.0
2016-Nov-15 02:31N 35°57' E 014°50'0 0.0
2016-Nov-14 16:19N 35°57' E 014°51'0 0.0
2016-Nov-14 15:16N 35°57' E 014°51'  
Track history (hours):
 
Tides and Currents Weather Stations Pressure Air Temp Water Temp Dewpoint Dewpoint Depression Visibility Wind Speed Wind Dir Waves Ship Positions

Gener8 Spyridon

Last reported at 2016-Nov-24 14:33 UTC. Time now 2016-Dec-05 08:35 UTC.
Position N 34°14' E 032°46'.
Warning: this ship's position is 10 days out of date.

Length 275 m; draft 11 m.

Type: Tanker. MMSI: 538001404.

Date/timePositionNaut miles runAvg speedWind from/ knotsBaromVisibWave heightAir tempDewpointWater temp
2016-Nov-24 14:33N 34°14' E 032°46'19 7.6
2016-Nov-24 12:05N 34°15' E 033°09'14 9.4
2016-Nov-24 10:33N 34°28' E 033°16'2 1.5
2016-Nov-24 09:33N 34°30' E 033°17'1 1.3
2016-Nov-24 08:33N 34°31' E 033°17'3 2.9
2016-Nov-24 07:33N 34°29' E 033°19'8 1.9
2016-Nov-24 03:18N 34°21' E 033°21'1 1.5
2016-Nov-24 02:30N 34°22' E 033°21'3 1.5
2016-Nov-24 00:21N 34°25' E 033°19'0 0.5
2016-Nov-23 23:28N 34°25' E 033°19'3 0.1
2016-Nov-22 20:31N 34°22' E 033°18'1 1.3
2016-Nov-22 19:27N 34°24' E 033°18'2 1.3
2016-Nov-22 17:33N 34°26' E 033°17'1 1.4
2016-Nov-22 16:33N 34°27' E 033°16'2 1.9
2016-Nov-22 15:33N 34°29' E 033°15'2 2.4
2016-Nov-22 14:34N 34°28' E 033°17'3 3.2
2016-Nov-22 13:33N 34°24' E 033°18'1 0.5
2016-Nov-22 10:32N 34°26' E 033°17'4 4.4
2016-Nov-22 09:33N 34°30' E 033°18'2 2.2
2016-Nov-22 08:33N 34°32' E 033°20'2 1.7
2016-Nov-22 07:33N 34°31' E 033°18'8 1.9
2016-Nov-22 03:28N 34°26' E 033°11'0 0.4
2016-Nov-22 02:33N 34°26' E 033°11'1 0.4
2016-Nov-21 23:26N 34°25' E 033°13'1 0.5
2016-Nov-21 21:33N 34°26' E 033°14'3 0.6
2016-Nov-21 17:33N 34°27' E 033°16'1 0.4
2016-Nov-21 14:33N 34°28' E 033°17'6 0.2
2016-Nov-20 13:33N 34°22' E 033°16'2 1.7
2016-Nov-20 12:33N 34°24' E 033°16'4 1.4
2016-Nov-20 09:33N 34°28' E 033°16'1 1.3
2016-Nov-20 08:33N 34°29' E 033°15'5 5.2
2016-Nov-20 07:33N 34°29' E 033°09'1110.9
2016-Nov-20 06:34N 34°28' E 032°56'1312.9
2016-Nov-20 05:33N 34°28' E 032°40'  
2016-Nov-16 23:22N 35°57' E 014°50'0 0.0
2016-Nov-16 22:31N 35°57' E 014°50'0 0.0
2016-Nov-16 18:31N 35°57' E 014°50'0 0.0
2016-Nov-16 17:31N 35°57' E 014°50'0 0.0
2016-Nov-16 12:13N 35°57' E 014°50'0 0.0
2016-Nov-15 21:31N 35°57' E 014°50'0 0.1
2016-Nov-15 19:31N 35°57' E 014°50'0 0.1
2016-Nov-15 18:31N 35°57' E 014°50'0 0.0
2016-Nov-15 13:28N 35°57' E 014°50'0 0.0
2016-Nov-15 12:28N 35°57' E 014°50'0 0.0
2016-Nov-15 07:31N 35°57' E 014°50'0 0.0
2016-Nov-15 06:22N 35°57' E 014°50'0 0.0
2016-Nov-15 05:46N 35°57' E 014°50'0 0.0
2016-Nov-15 03:31N 35°57' E 014°50'0 0.0
2016-Nov-15 02:31N 35°57' E 014°50'0 0.0
2016-Nov-14 16:19N 35°57' E 014°51'0 0.0
2016-Nov-14 15:16N 35°57' E 014°51'  

Dump ship's entire track history